createdAt,value
2019-03-12T00:01:42.819Z,9.73
2019-03-12T00:04:14.267Z,9.63
2019-03-12T00:06:45.694Z,9.83
2019-03-12T00:09:17.026Z,9.57
2019-03-12T00:11:48.563Z,9.70
2019-03-12T00:14:19.985Z,9.93
2019-03-12T00:16:51.441Z,8.87
2019-03-12T00:19:23.067Z,8.83
2019-03-12T00:21:53.940Z,8.47
2019-03-12T00:24:25.162Z,9.63
2019-03-12T00:26:56.606Z,8.40
2019-03-12T00:29:27.310Z,8.70
2019-03-12T00:31:58.529Z,8.63
2019-03-12T00:34:30.183Z,8.40
2019-03-12T00:37:01.562Z,8.57
2019-03-12T00:39:35.966Z,8.30
2019-03-12T00:42:07.287Z,8.23
2019-03-12T00:44:39.649Z,7.90
2019-03-12T00:47:10.939Z,7.60
2019-03-12T00:49:42.261Z,7.53
2019-03-12T00:52:13.611Z,7.93
2019-03-12T00:54:48.752Z,7.33
2019-03-12T00:57:20.250Z,7.03
2019-03-12T02:32:26.129Z,6.77
2019-03-12T02:34:58.601Z,6.80
2019-03-12T02:37:29.707Z,5.83
2019-03-12T02:40:01.040Z,6.40
2019-03-12T02:42:32.208Z,6.83
2019-03-12T02:45:02.680Z,6.87
2019-03-12T02:47:33.633Z,6.70
2019-03-12T02:50:04.544Z,6.13
2019-03-12T02:52:36.225Z,6.67
2019-03-12T02:55:08.602Z,6.77
2019-03-12T02:57:39.961Z,6.63
2019-03-12T03:00:15.626Z,6.83
2019-03-12T03:02:46.398Z,5.97
2019-03-12T03:05:17.434Z,5.60
2019-03-12T03:07:50.729Z,6.53
2019-03-12T03:10:21.929Z,7.10
2019-03-12T03:12:52.595Z,6.33
2019-03-12T03:15:25.178Z,6.07
2019-03-12T03:17:55.715Z,6.33
2019-03-12T03:20:26.878Z,7.07
2019-03-12T03:22:58.187Z,6.87
2019-03-12T03:25:29.654Z,5.87
2019-03-12T03:28:01.524Z,5.93
2019-03-12T03:30:32.873Z,5.87
2019-03-12T03:33:03.700Z,6.33
2019-03-12T03:35:36.793Z,6.43
2019-03-12T03:38:08.622Z,6.07
2019-03-12T03:40:39.978Z,6.13
2019-03-12T03:43:10.714Z,6.10
2019-03-12T03:45:42.212Z,6.40
2019-03-12T03:48:14.006Z,5.97
2019-03-12T03:50:45.286Z,6.17
2019-03-12T03:53:16.081Z,5.87
2019-03-12T03:55:47.194Z,6.97
2019-03-12T03:58:18.597Z,6.43
2019-03-12T04:00:50.023Z,6.30
2019-03-12T04:03:21.515Z,5.87
2019-03-12T04:05:52.997Z,6.23
2019-03-12T04:08:26.063Z,5.93
2019-03-12T04:10:56.778Z,6.13
2019-03-12T04:13:28.316Z,6.20
2019-03-12T04:15:59.773Z,6.27
2019-03-12T04:18:31.435Z,5.90
2019-03-12T04:21:02.242Z,5.73
2019-03-12T04:23:33.463Z,5.63
2019-03-12T04:26:05.497Z,6.40
2019-03-12T04:28:36.065Z,6.20
2019-03-12T04:31:08.522Z,5.80
2019-03-12T04:34:21.716Z,5.23
2019-03-12T04:36:53.682Z,5.60
2019-03-12T04:39:24.768Z,5.57
2019-03-12T04:41:55.839Z,5.97
2019-03-12T04:44:26.525Z,4.77
2019-03-12T04:46:57.033Z,5.53
2019-03-12T04:49:29.149Z,5.93
2019-03-12T04:52:00.454Z,5.33
2019-03-12T04:54:32.859Z,5.40
2019-03-12T04:57:04.494Z,5.67
2019-03-12T04:59:37.328Z,5.37
2019-03-12T05:02:07.937Z,5.40
2019-03-12T05:04:39.194Z,5.03
2019-03-12T05:07:10.735Z,5.30
2019-03-12T05:09:42.247Z,4.30
2019-03-12T05:12:13.543Z,4.20
2019-03-12T05:14:46.004Z,4.43
2019-03-12T05:17:28.503Z,4.80
2019-03-12T05:20:02.559Z,4.57
2019-03-12T05:22:33.978Z,5.67
2019-03-12T05:25:05.231Z,5.00
2019-03-12T05:27:37.903Z,5.23
2019-03-12T05:30:12.378Z,4.90
2019-03-12T05:32:45.871Z,4.00
2019-03-12T05:35:17.205Z,4.93
2019-03-12T05:37:50.318Z,4.70
2019-03-12T05:40:24.097Z,4.77
2019-03-12T05:42:54.897Z,4.80
2019-03-12T05:45:25.486Z,4.63
2019-03-12T05:47:56.539Z,4.83
2019-03-12T05:50:27.872Z,5.33
2019-03-12T05:53:34.341Z,5.10
2019-03-12T05:56:05.724Z,5.17
2019-03-12T05:58:36.391Z,5.00
2019-03-12T06:01:07.618Z,4.80
2019-03-12T06:03:39.038Z,5.03
2019-03-12T06:09:14.981Z,5.47
2019-03-12T06:11:45.738Z,5.33
2019-03-12T06:14:16.999Z,6.07
2019-03-12T06:22:16.848Z,5.67
2019-03-12T06:33:19.240Z,5.50
2019-03-12T06:35:58.916Z,5.33
2019-03-12T06:45:03.369Z,5.60
2019-03-12T06:47:59.941Z,5.20
2019-03-12T06:50:53.540Z,5.60
2019-03-12T06:53:49.689Z,6.13
2019-03-12T06:56:30.085Z,6.17
2019-03-12T06:59:16.329Z,5.47
2019-03-12T07:02:06.856Z,5.57
2019-03-12T07:04:46.022Z,5.30
2019-03-12T07:07:36.321Z,4.83
2019-03-12T07:10:22.857Z,6.50
2019-03-12T07:13:11.223Z,5.40
2019-03-12T07:15:48.901Z,5.63
2019-03-12T07:18:33.717Z,5.37
2019-03-12T07:21:13.016Z,5.73
2019-03-12T07:24:02.016Z,4.93
2019-03-12T07:27:10.689Z,5.07
2019-03-12T07:30:06.953Z,5.73
2019-03-12T07:33:03.283Z,5.10
2019-03-12T07:35:57.998Z,5.47
2019-03-12T07:38:43.455Z,4.77
2019-03-12T07:41:31.930Z,4.87
2019-03-12T07:44:28.190Z,5.67
2019-03-12T07:47:35.142Z,4.70
2019-03-12T07:50:05.982Z,5.37
2019-03-12T08:28:45.397Z,3.50
2019-03-12T08:31:35.806Z,4.53
2019-03-12T08:55:57.875Z,3.90
2019-03-12T08:58:57.259Z,3.50
2019-03-12T09:01:53.905Z,3.63
2019-03-12T09:04:43.318Z,3.47
2019-03-12T09:47:02.005Z,4.20
2019-03-12T09:49:51.564Z,5.70
2019-03-12T09:52:48.075Z,6.57
2019-03-12T09:55:26.396Z,6.40
2019-03-12T09:58:11.629Z,8.83
2019-03-12T10:00:52.532Z,10.33
2019-03-12T10:03:33.445Z,11.23
2019-03-12T10:06:23.486Z,12.67
2019-03-12T10:09:16.917Z,11.80
2019-03-12T10:11:58.767Z,10.60
2019-03-12T10:14:49.238Z,11.83
2019-03-12T10:17:33.019Z,11.40
2019-03-12T10:20:39.579Z,12.67
2019-03-12T10:23:28.976Z,12.57
2019-03-12T10:26:18.642Z,12.33
2019-03-12T10:29:28.094Z,12.80
2019-03-12T10:32:09.847Z,11.83
2019-03-12T10:35:06.317Z,12.37
2019-03-12T10:37:55.400Z,11.40
2019-03-12T10:40:45.763Z,11.83
2019-03-12T10:43:36.319Z,11.40
2019-03-12T12:10:21.112Z,15.30
2019-03-12T12:35:43.419Z,10.30
2019-03-12T12:38:15.168Z,10.77
2019-03-12T12:40:46.635Z,10.43
2019-03-12T12:43:18.302Z,11.17
2019-03-12T12:45:49.858Z,11.03
2019-03-12T12:48:21.165Z,10.60
2019-03-12T12:51:02.898Z,10.23
2019-03-12T12:53:26.767Z,8.97
2019-03-12T12:55:58.047Z,9.90
2019-03-12T12:58:29.318Z,10.37
2019-03-12T13:01:00.716Z,9.50
2019-03-12T13:03:32.370Z,9.97
2019-03-12T13:06:03.643Z,8.57
2019-03-12T13:08:34.885Z,8.37
2019-03-12T13:11:06.234Z,8.03
2019-03-12T13:13:37.441Z,7.73
2019-03-12T13:16:08.681Z,8.47
2019-03-12T13:18:40.565Z,8.13
2019-03-12T13:21:12.053Z,7.97
2019-03-12T13:23:43.468Z,7.57
2019-03-12T13:26:14.841Z,8.00
2019-03-12T13:31:17.246Z,7.27
2019-03-12T13:33:48.742Z,7.93
2019-03-12T13:36:20.124Z,8.47
2019-03-12T13:38:51.545Z,7.87
2019-03-12T13:43:53.853Z,7.37
2019-03-12T13:46:25.144Z,6.43
2019-03-12T13:48:56.539Z,6.97
2019-03-12T13:51:28.882Z,7.10
2019-03-12T13:54:00.607Z,6.30
2019-03-12T13:56:32.133Z,7.07
2019-03-12T13:59:03.556Z,7.03
2019-03-12T14:01:34.950Z,7.03
2019-03-12T14:04:10.741Z,7.60
2019-03-12T14:06:39.095Z,7.17
2019-03-12T14:09:10.564Z,8.27
2019-03-12T14:11:43.558Z,7.87
2019-03-12T14:14:14.847Z,8.73
2019-03-12T14:16:46.525Z,8.90
2019-03-12T14:19:17.985Z,7.70
2019-03-12T14:21:49.338Z,8.87
2019-03-12T14:24:20.731Z,8.40
2019-03-12T14:26:52.286Z,8.53
2019-03-12T14:29:23.612Z,9.10
2019-03-12T14:31:54.575Z,9.20
2019-03-12T14:34:27.132Z,8.33
2019-03-12T14:36:58.911Z,8.27
2019-03-12T14:39:30.567Z,8.23
2019-03-12T14:42:01.643Z,7.87
2019-03-12T14:44:33.118Z,8.53
2019-03-12T14:47:06.245Z,8.07
2019-03-12T14:49:38.057Z,8.37
2019-03-12T14:52:19.725Z,8.33
2019-03-12T14:54:51.975Z,9.43
2019-03-12T14:57:22.820Z,9.03
2019-03-12T14:59:54.130Z,7.77
2019-03-12T15:02:25.841Z,9.27
2019-03-12T15:04:57.037Z,8.07
2019-03-12T15:07:28.647Z,8.67
2019-03-12T15:10:00.391Z,8.83
2019-03-12T15:12:32.866Z,8.17
2019-03-12T15:15:05.103Z,10.63
2019-03-12T15:17:37.241Z,11.80
2019-03-12T15:20:09.290Z,9.40
2019-03-12T15:22:41.029Z,9.97
2019-03-12T15:25:12.714Z,9.37
2019-03-12T15:27:43.672Z,9.63
2019-03-12T15:30:17.463Z,9.60
2019-03-12T15:32:48.915Z,9.70
2019-03-12T15:52:55.721Z,13.07
2019-03-12T15:55:26.697Z,12.33
2019-03-12T15:57:57.728Z,12.27
2019-03-12T16:00:29.176Z,11.80
2019-03-12T16:03:00.882Z,12.87
2019-03-12T16:05:32.387Z,13.10
2019-03-12T16:08:03.687Z,14.23
2019-03-12T16:10:35.773Z,14.67
2019-03-12T16:13:08.167Z,15.10
2019-03-12T16:15:39.775Z,14.50
2019-03-12T16:18:14.297Z,16.40
2019-03-12T16:20:44.359Z,14.77
2019-03-12T16:23:15.790Z,14.30
2019-03-12T16:25:47.382Z,14.10
2019-03-12T16:28:18.562Z,11.77
2019-03-12T16:30:51.813Z,12.77
2019-03-12T16:33:23.234Z,11.93
2019-03-12T16:35:54.885Z,11.50
2019-03-12T16:38:26.040Z,11.33
2019-03-12T16:40:57.526Z,11.93
2019-03-12T16:43:28.490Z,11.70
2019-03-12T16:45:59.296Z,12.10
2019-03-12T16:48:30.641Z,11.27
2019-03-12T16:51:02.246Z,10.80
2019-03-12T16:53:33.836Z,10.93
2019-03-12T16:56:04.548Z,11.10
2019-03-12T16:58:35.972Z,11.47
2019-03-12T17:01:07.467Z,12.10
2019-03-12T17:03:39.235Z,13.57
2019-03-12T17:06:11.871Z,12.23
2019-03-12T17:08:44.934Z,10.70
2019-03-12T17:11:16.328Z,11.17
2019-03-12T17:13:47.904Z,10.30
2019-03-12T17:39:04.741Z,9.60
2019-03-12T17:41:37.785Z,10.27
2019-03-12T17:44:09.472Z,9.27
2019-03-12T17:46:40.840Z,9.80
2019-03-12T17:49:12.952Z,9.23
2019-03-12T17:51:46.132Z,10.13
2019-03-12T17:54:17.683Z,10.30
2019-03-12T17:56:48.990Z,10.47
2019-03-12T17:59:20.591Z,11.27
2019-03-12T18:01:52.661Z,11.23
2019-03-12T18:04:24.662Z,11.40
2019-03-12T18:06:57.707Z,11.93
2019-03-12T18:09:29.702Z,12.13
2019-03-12T18:12:01.185Z,11.37
2019-03-12T18:14:32.748Z,11.03
2019-03-12T18:17:12.970Z,14.20
2019-03-12T18:19:44.358Z,16.87
2019-03-12T18:22:15.601Z,16.83
2019-03-12T18:24:46.525Z,15.43
2019-03-12T18:27:42.366Z,16.10
2019-03-12T18:30:33.542Z,15.80
2019-03-12T18:33:01.489Z,15.03
2019-03-12T18:35:34.714Z,15.87
2019-03-12T18:38:06.064Z,14.37
2019-03-12T18:40:51.221Z,15.77
2019-03-12T18:43:33.889Z,16.20
2019-03-12T18:46:04.977Z,16.70
2019-03-12T18:48:36.450Z,16.23
2019-03-12T18:51:08.115Z,15.83
2019-03-12T18:53:41.157Z,16.90
2019-03-12T18:56:12.626Z,18.50
2019-03-12T18:58:45.658Z,16.23
2019-03-12T19:01:19.126Z,15.57
2019-03-12T19:03:51.428Z,16.90
2019-03-12T19:06:22.655Z,17.37
2019-03-12T19:08:54.263Z,15.90
2019-03-12T19:11:25.758Z,16.47
2019-03-12T19:13:57.448Z,17.57
2019-03-12T19:16:29.092Z,18.07
2019-03-12T19:19:00.497Z,16.10
2019-03-12T19:21:32.080Z,15.70
2019-03-12T19:24:03.553Z,14.83
2019-03-12T19:26:35.694Z,14.90
2019-03-12T19:29:06.971Z,17.33
2019-03-12T19:32:06.183Z,13.53
2019-03-12T19:34:38.342Z,13.87
2019-03-12T19:37:09.823Z,12.60
2019-03-12T19:39:41.364Z,15.17
2019-03-12T19:42:12.259Z,13.97
2019-03-12T19:44:42.844Z,14.03
2019-03-12T19:47:13.527Z,15.53
2019-03-12T19:49:44.904Z,14.57
2019-03-12T19:52:16.500Z,16.53
2019-03-12T19:54:48.556Z,15.00
2019-03-12T19:57:19.111Z,15.03
2019-03-12T19:59:50.462Z,15.40
2019-03-12T20:02:22.816Z,14.80
2019-03-12T20:04:55.082Z,15.73
2019-03-12T20:07:27.172Z,16.47
2019-03-12T20:10:13.609Z,16.87
2019-03-12T20:12:52.690Z,18.53
2019-03-12T21:27:01.829Z,22.43
2019-03-12T21:29:43.227Z,21.67
2019-03-12T21:32:16.871Z,22.37
2019-03-12T21:34:48.401Z,22.17
2019-03-12T21:37:20.018Z,22.60
2019-03-12T21:39:55.666Z,23.03
2019-03-12T21:48:23.678Z,22.03
2019-03-12T21:50:55.129Z,22.23
2019-03-12T21:53:26.668Z,22.07
